sensor_id;sensor_type;location;lat;lon;timestamp;temperature;humidity
53264;DHT22;39153;52.680;6.172;2023-04-29T00:00:47;10.00;99.90
53264;DHT22;39153;52.680;6.172;2023-04-29T00:03:13;10.00;99.90
53264;DHT22;39153;52.680;6.172;2023-04-29T00:05:39;10.00;99.90
53264;DHT22;39153;52.680;6.172;2023-04-29T00:08:05;10.00;99.90
53264;DHT22;39153;52.680;6.172;2023-04-29T00:10:30;9.90;99.90
53264;DHT22;39153;52.680;6.172;2023-04-29T00:12:56;9.90;99.90
53264;DHT22;39153;52.680;6.172;2023-04-29T00:15:22;9.90;99.90
53264;DHT22;39153;52.680;6.172;2023-04-29T00:17:47;9.90;99.90
53264;DHT22;39153;52.680;6.172;2023-04-29T00:20:13;10.00;99.90
53264;DHT22;39153;52.680;6.172;2023-04-29T00:22:39;9.90;99.90
53264;DHT22;39153;52.680;6.172;2023-04-29T00:25:05;9.90;99.90
53264;DHT22;39153;52.680;6.172;2023-04-29T00:27:31;10.00;99.90
53264;DHT22;39153;52.680;6.172;2023-04-29T00:29:57;9.90;99.90
53264;DHT22;39153;52.680;6.172;2023-04-29T00:32:23;9.90;99.90
53264;DHT22;39153;52.680;6.172;2023-04-29T00:34:49;9.90;99.90
53264;DHT22;39153;52.680;6.172;2023-04-29T00:37:15;9.90;99.90
53264;DHT22;39153;52.680;6.172;2023-04-29T00:39:41;9.90;99.90
53264;DHT22;39153;52.680;6.172;2023-04-29T00:42:08;9.90;99.90
53264;DHT22;39153;52.680;6.172;2023-04-29T00:44:34;9.90;99.90
53264;DHT22;39153;52.680;6.172;2023-04-29T00:46:59;9.90;99.90
53264;DHT22;39153;52.680;6.172;2023-04-29T00:49:25;9.90;99.90
53264;DHT22;39153;52.680;6.172;2023-04-29T00:51:52;9.90;99.90
53264;DHT22;39153;52.680;6.172;2023-04-29T00:54:18;9.90;99.90
53264;DHT22;39153;52.680;6.172;2023-04-29T00:56:45;9.80;99.90
53264;DHT22;39153;52.680;6.172;2023-04-29T00:59:11;9.90;99.90
53264;DHT22;39153;52.680;6.172;2023-04-29T01:01:40;9.90;99.90
53264;DHT22;39153;52.680;6.172;2023-04-29T01:04:06;9.90;99.90
53264;DHT22;39153;52.680;6.172;2023-04-29T01:07:44;9.80;99.90
53264;DHT22;39153;52.680;6.172;2023-04-29T01:15:25;9.80;99.90
53264;DHT22;39153;52.680;6.172;2023-04-29T01:18:10;9.70;99.90
53264;DHT22;39153;52.680;6.172;2023-04-29T01:20:37;9.80;99.90
53264;DHT22;39153;52.680;6.172;2023-04-29T01:23:03;9.80;99.90
53264;DHT22;39153;52.680;6.172;2023-04-29T01:25:29;9.80;99.90
53264;DHT22;39153;52.680;6.172;2023-04-29T01:33:47;9.70;99.90
53264;DHT22;39153;52.680;6.172;2023-04-29T01:39:25;9.70;99.90
53264;DHT22;39153;52.680;6.172;2023-04-29T01:42:14;9.60;99.90
53264;DHT22;39153;52.680;6.172;2023-04-29T01:44:42;9.70;99.90
53264;DHT22;39153;52.680;6.172;2023-04-29T01:47:12;9.60;99.90
53264;DHT22;39153;52.680;6.172;2023-04-29T01:49:38;9.70;99.90
53264;DHT22;39153;52.680;6.172;2023-04-29T01:52:05;9.60;99.90
53264;DHT22;39153;52.680;6.172;2023-04-29T01:54:31;9.60;99.90
53264;DHT22;39153;52.680;6.172;2023-04-29T01:57:01;9.60;99.90
53264;DHT22;39153;52.680;6.172;2023-04-29T01:59:27;9.60;99.90
53264;DHT22;39153;52.680;6.172;2023-04-29T02:01:53;9.60;99.90
53264;DHT22;39153;52.680;6.172;2023-04-29T02:04:20;9.60;99.90
53264;DHT22;39153;52.680;6.172;2023-04-29T02:06:46;9.60;99.90
53264;DHT22;39153;52.680;6.172;2023-04-29T02:09:12;9.50;99.90
53264;DHT22;39153;52.680;6.172;2023-04-29T02:11:37;9.50;99.90
53264;DHT22;39153;52.680;6.172;2023-04-29T02:14:03;9.50;99.90
53264;DHT22;39153;52.680;6.172;2023-04-29T02:16:29;9.60;99.90
53264;DHT22;39153;52.680;6.172;2023-04-29T02:18:54;9.60;99.90
53264;DHT22;39153;52.680;6.172;2023-04-29T02:21:20;9.50;99.90
53264;DHT22;39153;52.680;6.172;2023-04-29T02:23:46;9.60;99.90
53264;DHT22;39153;52.680;6.172;2023-04-29T02:26:11;9.50;99.90
53264;DHT22;39153;52.680;6.172;2023-04-29T02:28:38;9.50;99.90
53264;DHT22;39153;52.680;6.172;2023-04-29T02:31:04;9.50;99.90
53264;DHT22;39153;52.680;6.172;2023-04-29T02:33:30;9.50;99.90
53264;DHT22;39153;52.680;6.172;2023-04-29T02:35:55;9.50;99.90
53264;DHT22;39153;52.680;6.172;2023-04-29T02:38:21;9.50;99.90
53264;DHT22;39153;52.680;6.172;2023-04-29T02:40:47;9.50;99.90
53264;DHT22;39153;52.680;6.172;2023-04-29T02:43:12;9.50;99.90
53264;DHT22;39153;52.680;6.172;2023-04-29T02:45:38;9.50;99.90
53264;DHT22;39153;52.680;6.172;2023-04-29T02:48:05;9.50;99.90
53264;DHT22;39153;52.680;6.172;2023-04-29T02:50:31;9.50;99.90
53264;DHT22;39153;52.680;6.172;2023-04-29T02:52:57;9.50;99.90
53264;DHT22;39153;52.680;6.172;2023-04-29T02:55:23;9.40;99.90
53264;DHT22;39153;52.680;6.172;2023-04-29T02:57:49;9.50;99.90
53264;DHT22;39153;52.680;6.172;2023-04-29T03:00:14;9.50;99.90
53264;DHT22;39153;52.680;6.172;2023-04-29T03:02:40;9.40;99.90
53264;DHT22;39153;52.680;6.172;2023-04-29T03:05:06;9.40;99.90
53264;DHT22;39153;52.680;6.172;2023-04-29T03:07:32;9.40;99.90
53264;DHT22;39153;52.680;6.172;2023-04-29T03:09:57;9.40;99.90
53264;DHT22;39153;52.680;6.172;2023-04-29T03:12:23;9.40;99.90
53264;DHT22;39153;52.680;6.172;2023-04-29T03:14:49;9.40;99.90
53264;DHT22;39153;52.680;6.172;2023-04-29T03:17:16;9.30;99.90
53264;DHT22;39153;52.680;6.172;2023-04-29T03:19:43;9.30;99.90
53264;DHT22;39153;52.680;6.172;2023-04-29T03:22:08;9.30;99.90
53264;DHT22;39153;52.680;6.172;2023-04-29T03:24:36;9.30;99.90
53264;DHT22;39153;52.680;6.172;2023-04-29T03:27:02;9.30;99.90
53264;DHT22;39153;52.680;6.172;2023-04-29T03:29:29;9.20;99.90
53264;DHT22;39153;52.680;6.172;2023-04-29T03:31:55;9.20;99.90
53264;DHT22;39153;52.680;6.172;2023-04-29T03:34:22;9.20;99.90
53264;DHT22;39153;52.680;6.172;2023-04-29T03:36:49;9.20;99.90
53264;DHT22;39153;52.680;6.172;2023-04-29T03:39:16;9.10;99.90
53264;DHT22;39153;52.680;6.172;2023-04-29T03:41:42;9.00;99.90
53264;DHT22;39153;52.680;6.172;2023-04-29T03:44:08;9.10;99.90
53264;DHT22;39153;52.680;6.172;2023-04-29T03:46:34;9.00;99.90
53264;DHT22;39153;52.680;6.172;2023-04-29T03:48:59;9.10;99.90
53264;DHT22;39153;52.680;6.172;2023-04-29T03:51:25;9.10;99.90
53264;DHT22;39153;52.680;6.172;2023-04-29T03:53:53;9.00;99.90
53264;DHT22;39153;52.680;6.172;2023-04-29T03:56:20;9.00;99.90
53264;DHT22;39153;52.680;6.172;2023-04-29T03:58:47;9.00;99.90
53264;DHT22;39153;52.680;6.172;2023-04-29T04:01:13;9.00;99.90
53264;DHT22;39153;52.680;6.172;2023-04-29T04:03:39;9.00;99.90
53264;DHT22;39153;52.680;6.172;2023-04-29T04:06:07;9.00;99.90
53264;DHT22;39153;52.680;6.172;2023-04-29T04:08:33;9.00;99.90
53264;DHT22;39153;52.680;6.172;2023-04-29T04:10:59;9.10;99.90
53264;DHT22;39153;52.680;6.172;2023-04-29T04:13:31;9.00;99.90
53264;DHT22;39153;52.680;6.172;2023-04-29T04:15:56;9.00;99.90
53264;DHT22;39153;52.680;6.172;2023-04-29T04:18:22;9.10;99.90
53264;DHT22;39153;52.680;6.172;2023-04-29T04:20:48;9.10;99.90
53264;DHT22;39153;52.680;6.172;2023-04-29T04:23:14;9.00;99.90
53264;DHT22;39153;52.680;6.172;2023-04-29T04:25:47;9.00;99.90
53264;DHT22;39153;52.680;6.172;2023-04-29T04:28:13;9.10;99.90
53264;DHT22;39153;52.680;6.172;2023-04-29T04:30:39;9.00;99.90
53264;DHT22;39153;52.680;6.172;2023-04-29T04:33:05;9.00;99.90
53264;DHT22;39153;52.680;6.172;2023-04-29T04:35:31;9.00;99.90
53264;DHT22;39153;52.680;6.172;2023-04-29T04:37:56;9.00;99.90
53264;DHT22;39153;52.680;6.172;2023-04-29T04:40:23;9.00;99.90
53264;DHT22;39153;52.680;6.172;2023-04-29T04:42:48;9.00;99.90
53264;DHT22;39153;52.680;6.172;2023-04-29T04:45:14;9.00;99.90
53264;DHT22;39153;52.680;6.172;2023-04-29T04:47:40;9.00;99.90
53264;DHT22;39153;52.680;6.172;2023-04-29T04:50:07;9.00;99.90
53264;DHT22;39153;52.680;6.172;2023-04-29T04:52:33;9.00;99.90
53264;DHT22;39153;52.680;6.172;2023-04-29T04:54:59;9.10;99.90
53264;DHT22;39153;52.680;6.172;2023-04-29T04:57:25;9.00;99.90
53264;DHT22;39153;52.680;6.172;2023-04-29T04:59:51;9.10;99.90
53264;DHT22;39153;52.680;6.172;2023-04-29T05:02:17;9.00;99.90
53264;DHT22;39153;52.680;6.172;2023-04-29T05:04:42;9.10;99.90
53264;DHT22;39153;52.680;6.172;2023-04-29T05:07:09;9.00;99.90
53264;DHT22;39153;52.680;6.172;2023-04-29T05:09:35;9.10;99.90
53264;DHT22;39153;52.680;6.172;2023-04-29T05:12:00;9.10;99.90
53264;DHT22;39153;52.680;6.172;2023-04-29T05:14:26;9.10;99.90
53264;DHT22;39153;52.680;6.172;2023-04-29T05:16:52;9.10;99.90
53264;DHT22;39153;52.680;6.172;2023-04-29T05:19:22;9.10;99.90
53264;DHT22;39153;52.680;6.172;2023-04-29T05:21:48;9.20;99.90
53264;DHT22;39153;52.680;6.172;2023-04-29T05:24:13;9.20;99.90
53264;DHT22;39153;52.680;6.172;2023-04-29T05:26:39;9.20;99.90
53264;DHT22;39153;52.680;6.172;2023-04-29T05:29:07;9.20;99.90
53264;DHT22;39153;52.680;6.172;2023-04-29T05:31:33;9.20;99.90
53264;DHT22;39153;52.680;6.172;2023-04-29T05:33:59;9.20;99.90
53264;DHT22;39153;52.680;6.172;2023-04-29T05:36:24;9.20;99.90
53264;DHT22;39153;52.680;6.172;2023-04-29T05:38:52;9.20;99.90
53264;DHT22;39153;52.680;6.172;2023-04-29T05:41:18;9.20;99.90
53264;DHT22;39153;52.680;6.172;2023-04-29T05:43:44;9.30;99.90
53264;DHT22;39153;52.680;6.172;2023-04-29T05:46:10;9.30;99.90
53264;DHT22;39153;52.680;6.172;2023-04-29T05:48:35;9.30;99.90
53264;DHT22;39153;52.680;6.172;2023-04-29T05:51:01;9.30;99.90
53264;DHT22;39153;52.680;6.172;2023-04-29T05:53:27;9.30;99.90
53264;DHT22;39153;52.680;6.172;2023-04-29T05:55:52;9.40;99.90
53264;DHT22;39153;52.680;6.172;2023-04-29T05:58:18;9.40;99.90
53264;DHT22;39153;52.680;6.172;2023-04-29T06:00:43;9.40;99.90
53264;DHT22;39153;52.680;6.172;2023-04-29T06:03:10;9.40;99.90
53264;DHT22;39153;52.680;6.172;2023-04-29T06:05:36;9.40;99.90
53264;DHT22;39153;52.680;6.172;2023-04-29T06:08:03;9.50;99.90
53264;DHT22;39153;52.680;6.172;2023-04-29T06:10:29;9.50;99.90
53264;DHT22;39153;52.680;6.172;2023-04-29T06:12:54;9.60;99.90
53264;DHT22;39153;52.680;6.172;2023-04-29T06:15:20;9.60;99.90
53264;DHT22;39153;52.680;6.172;2023-04-29T06:17:46;9.60;99.90
53264;DHT22;39153;52.680;6.172;2023-04-29T06:20:13;9.70;99.90
53264;DHT22;39153;52.680;6.172;2023-04-29T06:22:38;9.70;99.90
53264;DHT22;39153;52.680;6.172;2023-04-29T06:25:04;9.70;99.90
53264;DHT22;39153;52.680;6.172;2023-04-29T06:27:30;9.70;99.90
53264;DHT22;39153;52.680;6.172;2023-04-29T06:29:56;9.80;99.90
53264;DHT22;39153;52.680;6.172;2023-04-29T06:32:22;9.80;99.90
53264;DHT22;39153;52.680;6.172;2023-04-29T06:34:48;9.80;99.90
53264;DHT22;39153;52.680;6.172;2023-04-29T06:37:14;9.90;99.90
53264;DHT22;39153;52.680;6.172;2023-04-29T06:39:40;9.90;99.90
53264;DHT22;39153;52.680;6.172;2023-04-29T06:42:05;10.00;99.90
53264;DHT22;39153;52.680;6.172;2023-04-29T06:44:31;10.00;99.90
53264;DHT22;39153;52.680;6.172;2023-04-29T06:46:57;10.00;99.90
53264;DHT22;39153;52.680;6.172;2023-04-29T06:49:23;10.00;99.90
53264;DHT22;39153;52.680;6.172;2023-04-29T06:51:48;10.10;99.90
53264;DHT22;39153;52.680;6.172;2023-04-29T06:54:14;10.10;99.90
53264;DHT22;39153;52.680;6.172;2023-04-29T06:56:40;10.20;99.90
53264;DHT22;39153;52.680;6.172;2023-04-29T06:59:06;10.20;99.90
53264;DHT22;39153;52.680;6.172;2023-04-29T07:01:31;10.30;99.90
53264;DHT22;39153;52.680;6.172;2023-04-29T07:03:57;10.30;99.90
53264;DHT22;39153;52.680;6.172;2023-04-29T07:06:23;10.30;99.90
53264;DHT22;39153;52.680;6.172;2023-04-29T07:08:48;10.30;99.90
53264;DHT22;39153;52.680;6.172;2023-04-29T07:11:14;10.40;99.90
53264;DHT22;39153;52.680;6.172;2023-04-29T07:13:40;10.40;99.90
53264;DHT22;39153;52.680;6.172;2023-04-29T07:16:16;10.40;99.90
53264;DHT22;39153;52.680;6.172;2023-04-29T07:18:49;10.40;99.90
53264;DHT22;39153;52.680;6.172;2023-04-29T07:21:15;10.40;99.90
53264;DHT22;39153;52.680;6.172;2023-04-29T07:23:40;10.50;99.90
53264;DHT22;39153;52.680;6.172;2023-04-29T07:26:13;10.50;99.90
53264;DHT22;39153;52.680;6.172;2023-04-29T07:28:40;10.60;99.90
53264;DHT22;39153;52.680;6.172;2023-04-29T07:31:07;10.60;99.90
53264;DHT22;39153;52.680;6.172;2023-04-29T07:33:33;10.70;99.90
53264;DHT22;39153;52.680;6.172;2023-04-29T07:35:59;10.70;99.90
53264;DHT22;39153;52.680;6.172;2023-04-29T07:38:25;10.70;99.90
53264;DHT22;39153;52.680;6.172;2023-04-29T07:40:51;10.70;99.90
53264;DHT22;39153;52.680;6.172;2023-04-29T07:43:16;10.80;99.90
53264;DHT22;39153;52.680;6.172;2023-04-29T07:45:42;10.70;99.90
53264;DHT22;39153;52.680;6.172;2023-04-29T07:48:08;10.80;99.90
53264;DHT22;39153;52.680;6.172;2023-04-29T07:50:34;10.80;99.90
53264;DHT22;39153;52.680;6.172;2023-04-29T07:53:01;10.80;99.90
53264;DHT22;39153;52.680;6.172;2023-04-29T07:55:27;10.90;99.90
53264;DHT22;39153;52.680;6.172;2023-04-29T07:57:54;11.00;99.90
53264;DHT22;39153;52.680;6.172;2023-04-29T08:00:21;11.00;99.90
53264;DHT22;39153;52.680;6.172;2023-04-29T08:02:51;11.10;99.90
53264;DHT22;39153;52.680;6.172;2023-04-29T08:05:17;11.20;99.90
53264;DHT22;39153;52.680;6.172;2023-04-29T08:07:43;11.20;99.90
53264;DHT22;39153;52.680;6.172;2023-04-29T08:10:09;11.30;99.90
53264;DHT22;39153;52.680;6.172;2023-04-29T08:12:35;11.30;99.90
53264;DHT22;39153;52.680;6.172;2023-04-29T08:15:01;11.30;99.90
53264;DHT22;39153;52.680;6.172;2023-04-29T08:17:26;11.40;99.90
53264;DHT22;39153;52.680;6.172;2023-04-29T08:19:52;11.40;99.90
53264;DHT22;39153;52.680;6.172;2023-04-29T08:22:18;11.50;99.90
53264;DHT22;39153;52.680;6.172;2023-04-29T08:24:44;11.60;99.90
53264;DHT22;39153;52.680;6.172;2023-04-29T08:27:10;11.60;99.90
53264;DHT22;39153;52.680;6.172;2023-04-29T08:29:35;11.70;99.90
53264;DHT22;39153;52.680;6.172;2023-04-29T08:32:01;11.80;99.90
53264;DHT22;39153;52.680;6.172;2023-04-29T08:34:29;11.80;99.90
53264;DHT22;39153;52.680;6.172;2023-04-29T08:36:56;11.90;99.90
53264;DHT22;39153;52.680;6.172;2023-04-29T08:39:22;12.00;99.90
53264;DHT22;39153;52.680;6.172;2023-04-29T08:41:47;12.10;99.90
53264;DHT22;39153;52.680;6.172;2023-04-29T08:44:16;12.20;99.90
53264;DHT22;39153;52.680;6.172;2023-04-29T08:46:46;12.20;99.90
53264;DHT22;39153;52.680;6.172;2023-04-29T08:49:12;12.30;99.90
53264;DHT22;39153;52.680;6.172;2023-04-29T08:51:38;12.30;99.90
53264;DHT22;39153;52.680;6.172;2023-04-29T08:54:04;12.40;99.90
53264;DHT22;39153;52.680;6.172;2023-04-29T08:56:31;12.50;99.90
53264;DHT22;39153;52.680;6.172;2023-04-29T08:58:58;12.50;99.90
53264;DHT22;39153;52.680;6.172;2023-04-29T09:01:29;12.50;99.90
53264;DHT22;39153;52.680;6.172;2023-04-29T09:06:59;12.60;99.90
53264;DHT22;39153;52.680;6.172;2023-04-29T09:09:25;12.70;99.90
53264;DHT22;39153;52.680;6.172;2023-04-29T09:11:50;12.70;99.90
53264;DHT22;39153;52.680;6.172;2023-04-29T09:14:17;12.60;99.90
53264;DHT22;39153;52.680;6.172;2023-04-29T09:16:46;12.60;99.90
53264;DHT22;39153;52.680;6.172;2023-04-29T09:21:54;12.90;99.90
53264;DHT22;39153;52.680;6.172;2023-04-29T09:24:27;13.00;99.90
53264;DHT22;39153;52.680;6.172;2023-04-29T09:26:54;13.20;99.90
53264;DHT22;39153;52.680;6.172;2023-04-29T09:29:20;13.40;99.90
53264;DHT22;39153;52.680;6.172;2023-04-29T09:31:46;13.60;99.90
53264;DHT22;39153;52.680;6.172;2023-04-29T09:34:13;13.50;99.90
53264;DHT22;39153;52.680;6.172;2023-04-29T09:36:50;13.50;99.90
53264;DHT22;39153;52.680;6.172;2023-04-29T09:39:20;13.70;99.90
53264;DHT22;39153;52.680;6.172;2023-04-29T09:44:29;14.10;99.90
53264;DHT22;39153;52.680;6.172;2023-04-29T09:46:59;14.10;99.90
53264;DHT22;39153;52.680;6.172;2023-04-29T09:49:29;14.10;99.90
53264;DHT22;39153;52.680;6.172;2023-04-29T09:52:00;13.90;99.90
53264;DHT22;39153;52.680;6.172;2023-04-29T09:54:28;13.90;99.90
53264;DHT22;39153;52.680;6.172;2023-04-29T09:56:55;14.00;99.90
53264;DHT22;39153;52.680;6.172;2023-04-29T09:59:22;14.10;99.90
53264;DHT22;39153;52.680;6.172;2023-04-29T10:01:56;14.30;99.90
53264;DHT22;39153;52.680;6.172;2023-04-29T10:04:23;14.50;99.90
53264;DHT22;39153;52.680;6.172;2023-04-29T10:06:51;14.50;99.90
53264;DHT22;39153;52.680;6.172;2023-04-29T10:09:18;14.50;99.90
53264;DHT22;39153;52.680;6.172;2023-04-29T10:11:45;14.60;99.90
53264;DHT22;39153;52.680;6.172;2023-04-29T10:14:16;14.60;99.90
53264;DHT22;39153;52.680;6.172;2023-04-29T10:16:48;14.70;99.90
53264;DHT22;39153;52.680;6.172;2023-04-29T10:19:26;14.80;99.90
53264;DHT22;39153;52.680;6.172;2023-04-29T10:21:57;14.70;99.90
53264;DHT22;39153;52.680;6.172;2023-04-29T10:24:25;14.70;99.90
53264;DHT22;39153;52.680;6.172;2023-04-29T10:26:52;14.80;99.90
53264;DHT22;39153;52.680;6.172;2023-04-29T10:29:21;14.80;99.90
53264;DHT22;39153;52.680;6.172;2023-04-29T10:31:48;14.90;99.90
53264;DHT22;39153;52.680;6.172;2023-04-29T10:34:16;14.90;99.90
53264;DHT22;39153;52.680;6.172;2023-04-29T10:36:42;15.00;99.90
53264;DHT22;39153;52.680;6.172;2023-04-29T10:39:14;15.00;99.90
53264;DHT22;39153;52.680;6.172;2023-04-29T10:41:44;15.10;99.90
53264;DHT22;39153;52.680;6.172;2023-04-29T10:44:14;15.20;99.90
53264;DHT22;39153;52.680;6.172;2023-04-29T10:46:40;15.20;99.90
53264;DHT22;39153;52.680;6.172;2023-04-29T10:49:06;15.20;99.90
53264;DHT22;39153;52.680;6.172;2023-04-29T10:51:32;15.30;99.90
53264;DHT22;39153;52.680;6.172;2023-04-29T10:54:05;15.40;99.90
53264;DHT22;39153;52.680;6.172;2023-04-29T10:56:39;15.40;99.90
53264;DHT22;39153;52.680;6.172;2023-04-29T10:59:05;15.50;99.90
53264;DHT22;39153;52.680;6.172;2023-04-29T11:04:10;15.70;99.90
53264;DHT22;39153;52.680;6.172;2023-04-29T11:09:13;15.90;99.90
53264;DHT22;39153;52.680;6.172;2023-04-29T11:11:43;16.00;99.90
53264;DHT22;39153;52.680;6.172;2023-04-29T11:14:11;16.10;99.90
53264;DHT22;39153;52.680;6.172;2023-04-29T11:16:37;16.20;99.90
53264;DHT22;39153;52.680;6.172;2023-04-29T11:19:14;16.30;99.90
53264;DHT22;39153;52.680;6.172;2023-04-29T11:21:40;16.40;99.90
53264;DHT22;39153;52.680;6.172;2023-04-29T11:24:06;16.50;99.90
53264;DHT22;39153;52.680;6.172;2023-04-29T11:26:36;16.60;99.90
53264;DHT22;39153;52.680;6.172;2023-04-29T11:29:02;16.70;99.90
53264;DHT22;39153;52.680;6.172;2023-04-29T11:31:32;16.70;99.90
53264;DHT22;39153;52.680;6.172;2023-04-29T11:33:59;16.70;99.90
53264;DHT22;39153;52.680;6.172;2023-04-29T11:36:25;16.80;99.90
53264;DHT22;39153;52.680;6.172;2023-04-29T11:38:52;16.80;99.90
53264;DHT22;39153;52.680;6.172;2023-04-29T11:41:18;16.80;99.90
53264;DHT22;39153;52.680;6.172;2023-04-29T11:43:53;16.90;99.90
53264;DHT22;39153;52.680;6.172;2023-04-29T11:46:19;16.90;99.90
53264;DHT22;39153;52.680;6.172;2023-04-29T11:48:46;17.00;99.90
53264;DHT22;39153;52.680;6.172;2023-04-29T11:51:13;17.10;99.90
53264;DHT22;39153;52.680;6.172;2023-04-29T11:53:39;17.20;99.90
53264;DHT22;39153;52.680;6.172;2023-04-29T11:56:05;17.40;99.90
53264;DHT22;39153;52.680;6.172;2023-04-29T11:58:33;17.40;99.90
53264;DHT22;39153;52.680;6.172;2023-04-29T12:00:59;17.60;99.90
53264;DHT22;39153;52.680;6.172;2023-04-29T12:03:25;17.70;99.90
53264;DHT22;39153;52.680;6.172;2023-04-29T12:05:52;17.60;99.90
53264;DHT22;39153;52.680;6.172;2023-04-29T12:08:22;17.50;99.90
53264;DHT22;39153;52.680;6.172;2023-04-29T12:10:48;17.60;99.90
53264;DHT22;39153;52.680;6.172;2023-04-29T12:13:18;17.70;99.90
53264;DHT22;39153;52.680;6.172;2023-04-29T12:15:49;17.70;99.90
53264;DHT22;39153;52.680;6.172;2023-04-29T12:18:16;17.60;99.90
53264;DHT22;39153;52.680;6.172;2023-04-29T12:20:43;17.80;99.90
53264;DHT22;39153;52.680;6.172;2023-04-29T12:23:17;18.00;99.90
53264;DHT22;39153;52.680;6.172;2023-04-29T12:25:56;18.20;99.90
53264;DHT22;39153;52.680;6.172;2023-04-29T12:28:23;18.50;99.90
53264;DHT22;39153;52.680;6.172;2023-04-29T12:30:50;18.70;99.90
53264;DHT22;39153;52.680;6.172;2023-04-29T12:33:20;19.10;99.90
53264;DHT22;39153;52.680;6.172;2023-04-29T12:35:50;19.30;99.90
53264;DHT22;39153;52.680;6.172;2023-04-29T12:38:24;19.10;99.90
53264;DHT22;39153;52.680;6.172;2023-04-29T12:40:54;18.70;99.90
53264;DHT22;39153;52.680;6.172;2023-04-29T12:43:28;18.50;99.90
53264;DHT22;39153;52.680;6.172;2023-04-29T12:46:07;18.20;99.90
53264;DHT22;39153;52.680;6.172;2023-04-29T12:48:36;18.00;99.90
53264;DHT22;39153;52.680;6.172;2023-04-29T12:51:03;18.00;99.90
53264;DHT22;39153;52.680;6.172;2023-04-29T12:53:30;18.30;99.90
53264;DHT22;39153;52.680;6.172;2023-04-29T12:55:56;18.40;99.90
53264;DHT22;39153;52.680;6.172;2023-04-29T12:58:22;18.20;99.90
53264;DHT22;39153;52.680;6.172;2023-04-29T13:00:47;18.20;99.90
53264;DHT22;39153;52.680;6.172;2023-04-29T13:03:13;18.50;99.90
53264;DHT22;39153;52.680;6.172;2023-04-29T13:05:39;18.90;99.90
53264;DHT22;39153;52.680;6.172;2023-04-29T13:08:05;19.20;99.90
53264;DHT22;39153;52.680;6.172;2023-04-29T13:10:33;19.30;99.90
53264;DHT22;39153;52.680;6.172;2023-04-29T13:12:59;19.20;99.90
53264;DHT22;39153;52.680;6.172;2023-04-29T13:15:26;19.40;99.90
53264;DHT22;39153;52.680;6.172;2023-04-29T13:17:52;19.50;99.90
53264;DHT22;39153;52.680;6.172;2023-04-29T13:20:18;19.70;99.90
53264;DHT22;39153;52.680;6.172;2023-04-29T13:22:43;19.80;99.90
53264;DHT22;39153;52.680;6.172;2023-04-29T13:25:10;19.90;99.90
53264;DHT22;39153;52.680;6.172;2023-04-29T13:27:37;20.00;99.90
53264;DHT22;39153;52.680;6.172;2023-04-29T13:30:04;19.90;99.90
53264;DHT22;39153;52.680;6.172;2023-04-29T13:32:30;19.90;99.90
53264;DHT22;39153;52.680;6.172;2023-04-29T13:34:56;19.90;99.90
53264;DHT22;39153;52.680;6.172;2023-04-29T13:37:22;20.00;99.60
53264;DHT22;39153;52.680;6.172;2023-04-29T13:39:47;19.90;99.10
53264;DHT22;39153;52.680;6.172;2023-04-29T13:42:13;20.00;99.30
53264;DHT22;39153;52.680;6.172;2023-04-29T13:44:39;20.10;98.80
53264;DHT22;39153;52.680;6.172;2023-04-29T13:47:10;20.00;98.60
53264;DHT22;39153;52.680;6.172;2023-04-29T13:49:39;20.00;98.60
53264;DHT22;39153;52.680;6.172;2023-04-29T13:52:06;20.10;97.80
53264;DHT22;39153;52.680;6.172;2023-04-29T13:54:32;20.20;98.10
53264;DHT22;39153;52.680;6.172;2023-04-29T13:56:58;20.20;97.40
53264;DHT22;39153;52.680;6.172;2023-04-29T13:59:24;20.20;97.20
53264;DHT22;39153;52.680;6.172;2023-04-29T14:01:50;20.20;97.20
53264;DHT22;39153;52.680;6.172;2023-04-29T14:04:16;20.30;97.20
53264;DHT22;39153;52.680;6.172;2023-04-29T14:06:44;20.50;97.00
53264;DHT22;39153;52.680;6.172;2023-04-29T14:09:10;20.50;97.10
53264;DHT22;39153;52.680;6.172;2023-04-29T14:11:36;20.70;97.10
53264;DHT22;39153;52.680;6.172;2023-04-29T14:14:02;21.00;97.20
53264;DHT22;39153;52.680;6.172;2023-04-29T14:16:28;21.10;97.10
53264;DHT22;39153;52.680;6.172;2023-04-29T14:18:54;21.10;97.10
53264;DHT22;39153;52.680;6.172;2023-04-29T14:21:20;21.30;96.60
53264;DHT22;39153;52.680;6.172;2023-04-29T14:23:47;21.20;96.60
53264;DHT22;39153;52.680;6.172;2023-04-29T14:26:13;20.90;96.40
53264;DHT22;39153;52.680;6.172;2023-04-29T14:28:39;21.20;96.40
53264;DHT22;39153;52.680;6.172;2023-04-29T14:31:05;21.20;96.30
53264;DHT22;39153;52.680;6.172;2023-04-29T14:33:31;21.20;95.70
53264;DHT22;39153;52.680;6.172;2023-04-29T14:35:57;21.10;95.50
53264;DHT22;39153;52.680;6.172;2023-04-29T14:38:22;20.90;95.70
53264;DHT22;39153;52.680;6.172;2023-04-29T14:40:48;20.90;95.90
53264;DHT22;39153;52.680;6.172;2023-04-29T14:43:14;21.00;96.40
53264;DHT22;39153;52.680;6.172;2023-04-29T14:45:40;21.30;96.10
53264;DHT22;39153;52.680;6.172;2023-04-29T14:48:06;21.50;96.10
53264;DHT22;39153;52.680;6.172;2023-04-29T14:50:32;21.70;96.20
53264;DHT22;39153;52.680;6.172;2023-04-29T14:52:58;21.80;95.80
53264;DHT22;39153;52.680;6.172;2023-04-29T14:55:24;21.90;95.40
53264;DHT22;39153;52.680;6.172;2023-04-29T14:57:50;21.90;95.40
53264;DHT22;39153;52.680;6.172;2023-04-29T15:00:16;21.70;94.90
53264;DHT22;39153;52.680;6.172;2023-04-29T15:02:41;21.10;94.90
53264;DHT22;39153;52.680;6.172;2023-04-29T15:05:07;20.60;95.50
53264;DHT22;39153;52.680;6.172;2023-04-29T15:07:33;20.60;95.70
53264;DHT22;39153;52.680;6.172;2023-04-29T15:10:00;20.90;96.00
53264;DHT22;39153;52.680;6.172;2023-04-29T15:12:26;21.30;96.00
53264;DHT22;39153;52.680;6.172;2023-04-29T15:14:52;21.50;95.50
53264;DHT22;39153;52.680;6.172;2023-04-29T15:17:18;21.70;95.40
53264;DHT22;39153;52.680;6.172;2023-04-29T15:19:44;21.80;95.40
53264;DHT22;39153;52.680;6.172;2023-04-29T15:22:09;21.90;95.10
53264;DHT22;39153;52.680;6.172;2023-04-29T15:24:35;22.10;94.90
53264;DHT22;39153;52.680;6.172;2023-04-29T15:27:01;22.20;94.70
53264;DHT22;39153;52.680;6.172;2023-04-29T15:29:27;22.30;94.50
53264;DHT22;39153;52.680;6.172;2023-04-29T15:31:54;22.40;94.40
53264;DHT22;39153;52.680;6.172;2023-04-29T15:34:20;22.40;94.00
53264;DHT22;39153;52.680;6.172;2023-04-29T15:36:46;22.30;94.20
53264;DHT22;39153;52.680;6.172;2023-04-29T15:39:11;22.40;94.40
53264;DHT22;39153;52.680;6.172;2023-04-29T15:41:37;22.40;94.00
53264;DHT22;39153;52.680;6.172;2023-04-29T15:44:03;22.50;93.70
53264;DHT22;39153;52.680;6.172;2023-04-29T15:46:30;22.50;93.60
53264;DHT22;39153;52.680;6.172;2023-04-29T15:48:56;22.40;93.30
53264;DHT22;39153;52.680;6.172;2023-04-29T15:51:21;22.30;93.00
53264;DHT22;39153;52.680;6.172;2023-04-29T15:53:47;22.30;93.40
53264;DHT22;39153;52.680;6.172;2023-04-29T15:56:15;22.40;93.10
53264;DHT22;39153;52.680;6.172;2023-04-29T15:58:41;22.40;93.00
53264;DHT22;39153;52.680;6.172;2023-04-29T16:01:07;22.40;93.10
53264;DHT22;39153;52.680;6.172;2023-04-29T16:03:33;22.30;93.10